sensor_id;sensor_type;location;lat;lon;timestamp;temperature;humidity
14378;DHT22;7272;53.668;9.578;2023-04-07T00:00:36;6.60;99.90
14378;DHT22;7272;53.668;9.578;2023-04-07T00:03:38;6.50;99.90
14378;DHT22;7272;53.668;9.578;2023-04-07T00:06:42;6.50;99.90
14378;DHT22;7272;53.668;9.578;2023-04-07T00:09:44;6.50;99.90
14378;DHT22;7272;53.668;9.578;2023-04-07T00:12:47;6.50;99.90
14378;DHT22;7272;53.668;9.578;2023-04-07T00:15:49;6.50;99.90
14378;DHT22;7272;53.668;9.578;2023-04-07T00:18:51;6.50;99.90
14378;DHT22;7272;53.668;9.578;2023-04-07T00:21:54;6.40;99.90
14378;DHT22;7272;53.668;9.578;2023-04-07T00:24:56;6.40;99.90
14378;DHT22;7272;53.668;9.578;2023-04-07T00:27:58;6.50;99.90
14378;DHT22;7272;53.668;9.578;2023-04-07T00:31:00;6.50;99.90
14378;DHT22;7272;53.668;9.578;2023-04-07T00:34:02;6.50;99.90
14378;DHT22;7272;53.668;9.578;2023-04-07T00:37:05;6.50;99.90
14378;DHT22;7272;53.668;9.578;2023-04-07T00:40:08;6.60;99.90
14378;DHT22;7272;53.668;9.578;2023-04-07T00:43:10;6.50;99.90
14378;DHT22;7272;53.668;9.578;2023-04-07T00:46:12;6.40;99.90
14378;DHT22;7272;53.668;9.578;2023-04-07T00:49:14;6.50;99.90
14378;DHT22;7272;53.668;9.578;2023-04-07T00:52:18;6.50;99.90
14378;DHT22;7272;53.668;9.578;2023-04-07T00:55:26;6.40;99.90
14378;DHT22;7272;53.668;9.578;2023-04-07T00:58:28;6.40;99.90
14378;DHT22;7272;53.668;9.578;2023-04-07T01:01:36;6.50;99.90
14378;DHT22;7272;53.668;9.578;2023-04-07T01:04:45;6.40;99.90
14378;DHT22;7272;53.668;9.578;2023-04-07T01:07:57;6.40;99.90
14378;DHT22;7272;53.668;9.578;2023-04-07T01:11:05;6.40;99.90
14378;DHT22;7272;53.668;9.578;2023-04-07T01:14:10;6.40;99.90
14378;DHT22;7272;53.668;9.578;2023-04-07T01:17:18;6.40;99.90
14378;DHT22;7272;53.668;9.578;2023-04-07T01:20:22;6.30;99.90
14378;DHT22;7272;53.668;9.578;2023-04-07T01:23:46;6.30;99.90
14378;DHT22;7272;53.668;9.578;2023-04-07T01:26:50;6.30;99.90
14378;DHT22;7272;53.668;9.578;2023-04-07T01:29:55;6.30;99.90
14378;DHT22;7272;53.668;9.578;2023-04-07T01:32:58;6.30;99.90
14378;DHT22;7272;53.668;9.578;2023-04-07T01:36:02;6.20;99.90
14378;DHT22;7272;53.668;9.578;2023-04-07T01:39:05;6.20;99.90
14378;DHT22;7272;53.668;9.578;2023-04-07T01:42:08;6.10;99.90
14378;DHT22;7272;53.668;9.578;2023-04-07T01:45:13;6.20;99.90
14378;DHT22;7272;53.668;9.578;2023-04-07T01:48:16;6.20;99.90
14378;DHT22;7272;53.668;9.578;2023-04-07T01:51:19;6.10;99.90
14378;DHT22;7272;53.668;9.578;2023-04-07T01:54:22;6.10;99.90
14378;DHT22;7272;53.668;9.578;2023-04-07T01:57:26;6.10;99.90
14378;DHT22;7272;53.668;9.578;2023-04-07T02:00:35;6.00;99.90
14378;DHT22;7272;53.668;9.578;2023-04-07T02:03:46;5.90;99.90
14378;DHT22;7272;53.668;9.578;2023-04-07T02:06:53;5.90;99.90
14378;DHT22;7272;53.668;9.578;2023-04-07T02:10:09;5.80;99.90
14378;DHT22;7272;53.668;9.578;2023-04-07T02:13:15;5.80;99.90
14378;DHT22;7272;53.668;9.578;2023-04-07T02:16:19;5.80;99.90
14378;DHT22;7272;53.668;9.578;2023-04-07T02:19:23;5.80;99.90
14378;DHT22;7272;53.668;9.578;2023-04-07T02:22:26;5.80;99.90
14378;DHT22;7272;53.668;9.578;2023-04-07T02:25:30;5.70;99.90
14378;DHT22;7272;53.668;9.578;2023-04-07T02:28:32;5.70;99.90
14378;DHT22;7272;53.668;9.578;2023-04-07T02:31:35;5.70;99.90
14378;DHT22;7272;53.668;9.578;2023-04-07T02:34:37;5.60;99.90
14378;DHT22;7272;53.668;9.578;2023-04-07T02:37:40;5.60;99.90
14378;DHT22;7272;53.668;9.578;2023-04-07T02:40:42;5.60;99.90
14378;DHT22;7272;53.668;9.578;2023-04-07T02:43:44;5.50;99.90
14378;DHT22;7272;53.668;9.578;2023-04-07T02:46:48;5.50;99.90
14378;DHT22;7272;53.668;9.578;2023-04-07T02:49:50;5.40;99.90
14378;DHT22;7272;53.668;9.578;2023-04-07T02:52:52;5.40;99.90
14378;DHT22;7272;53.668;9.578;2023-04-07T02:55:54;5.30;99.90
14378;DHT22;7272;53.668;9.578;2023-04-07T02:58:56;5.20;99.90
14378;DHT22;7272;53.668;9.578;2023-04-07T03:02:00;5.20;99.90
14378;DHT22;7272;53.668;9.578;2023-04-07T03:05:02;5.10;99.90
14378;DHT22;7272;53.668;9.578;2023-04-07T03:08:04;5.10;99.90
14378;DHT22;7272;53.668;9.578;2023-04-07T03:11:06;5.00;99.90
14378;DHT22;7272;53.668;9.578;2023-04-07T03:14:08;4.90;99.90
14378;DHT22;7272;53.668;9.578;2023-04-07T03:17:19;4.90;99.90
14378;DHT22;7272;53.668;9.578;2023-04-07T03:20:21;4.90;99.90
14378;DHT22;7272;53.668;9.578;2023-04-07T03:23:23;4.80;99.90
14378;DHT22;7272;53.668;9.578;2023-04-07T03:26:25;4.70;99.90
14378;DHT22;7272;53.668;9.578;2023-04-07T03:29:28;4.60;99.90
14378;DHT22;7272;53.668;9.578;2023-04-07T03:32:31;4.60;99.90
14378;DHT22;7272;53.668;9.578;2023-04-07T03:35:33;4.50;99.90
14378;DHT22;7272;53.668;9.578;2023-04-07T03:38:35;4.50;99.90
14378;DHT22;7272;53.668;9.578;2023-04-07T03:41:39;4.50;99.90
14378;DHT22;7272;53.668;9.578;2023-04-07T03:44:41;4.40;99.90
14378;DHT22;7272;53.668;9.578;2023-04-07T03:47:45;4.30;99.90
14378;DHT22;7272;53.668;9.578;2023-04-07T03:50:48;4.20;99.90
14378;DHT22;7272;53.668;9.578;2023-04-07T03:53:52;4.20;99.90
14378;DHT22;7272;53.668;9.578;2023-04-07T03:57:04;4.20;99.90
14378;DHT22;7272;53.668;9.578;2023-04-07T04:00:12;4.20;99.90
14378;DHT22;7272;53.668;9.578;2023-04-07T04:03:36;4.10;99.90
14378;DHT22;7272;53.668;9.578;2023-04-07T04:06:52;4.10;99.90
14378;DHT22;7272;53.668;9.578;2023-04-07T04:10:01;4.10;99.90
14378;DHT22;7272;53.668;9.578;2023-04-07T04:13:07;4.00;99.90
14378;DHT22;7272;53.668;9.578;2023-04-07T04:16:10;4.00;99.90
14378;DHT22;7272;53.668;9.578;2023-04-07T04:19:14;3.90;99.90
14378;DHT22;7272;53.668;9.578;2023-04-07T04:22:17;3.90;99.90
14378;DHT22;7272;53.668;9.578;2023-04-07T04:25:26;3.90;99.90
14378;DHT22;7272;53.668;9.578;2023-04-07T04:28:31;3.80;99.90
14378;DHT22;7272;53.668;9.578;2023-04-07T04:31:34;3.80;99.90
14378;DHT22;7272;53.668;9.578;2023-04-07T04:34:38;3.90;99.90
14378;DHT22;7272;53.668;9.578;2023-04-07T04:37:42;3.90;99.90
14378;DHT22;7272;53.668;9.578;2023-04-07T04:40:45;3.90;99.90
14378;DHT22;7272;53.668;9.578;2023-04-07T04:43:50;4.00;99.90
14378;DHT22;7272;53.668;9.578;2023-04-07T04:46:56;4.00;99.90
14378;DHT22;7272;53.668;9.578;2023-04-07T04:50:00;4.00;99.90
14378;DHT22;7272;53.668;9.578;2023-04-07T04:53:04;4.00;99.90
14378;DHT22;7272;53.668;9.578;2023-04-07T04:56:06;3.90;99.90
14378;DHT22;7272;53.668;9.578;2023-04-07T04:59:13;3.90;99.90
14378;DHT22;7272;53.668;9.578;2023-04-07T05:02:35;3.90;99.90
14378;DHT22;7272;53.668;9.578;2023-04-07T05:05:41;3.80;99.90
14378;DHT22;7272;53.668;9.578;2023-04-07T05:08:43;3.80;99.90
14378;DHT22;7272;53.668;9.578;2023-04-07T05:11:47;3.90;99.90
14378;DHT22;7272;53.668;9.578;2023-04-07T05:14:50;3.90;99.90
14378;DHT22;7272;53.668;9.578;2023-04-07T05:17:52;3.90;99.90
14378;DHT22;7272;53.668;9.578;2023-04-07T05:21:00;4.00;99.90
14378;DHT22;7272;53.668;9.578;2023-04-07T05:24:03;4.00;99.90
14378;DHT22;7272;53.668;9.578;2023-04-07T05:27:07;4.10;99.90
14378;DHT22;7272;53.668;9.578;2023-04-07T05:30:11;4.10;99.90
14378;DHT22;7272;53.668;9.578;2023-04-07T05:33:13;4.20;99.90
14378;DHT22;7272;53.668;9.578;2023-04-07T05:36:23;4.20;99.90
14378;DHT22;7272;53.668;9.578;2023-04-07T05:39:30;4.30;99.90
14378;DHT22;7272;53.668;9.578;2023-04-07T05:42:32;4.30;99.90
14378;DHT22;7272;53.668;9.578;2023-04-07T05:45:36;4.40;99.90
14378;DHT22;7272;53.668;9.578;2023-04-07T05:48:39;4.50;99.90
14378;DHT22;7272;53.668;9.578;2023-04-07T05:51:42;4.60;99.90
14378;DHT22;7272;53.668;9.578;2023-04-07T05:54:47;4.70;99.90
14378;DHT22;7272;53.668;9.578;2023-04-07T05:57:50;4.80;99.90
14378;DHT22;7272;53.668;9.578;2023-04-07T06:00:55;4.80;99.90
14378;DHT22;7272;53.668;9.578;2023-04-07T06:03:57;4.90;99.90
14378;DHT22;7272;53.668;9.578;2023-04-07T06:07:02;5.00;99.90
14378;DHT22;7272;53.668;9.578;2023-04-07T06:10:05;5.10;99.90
14378;DHT22;7272;53.668;9.578;2023-04-07T06:13:07;5.20;99.90
14378;DHT22;7272;53.668;9.578;2023-04-07T06:16:09;5.30;99.90
14378;DHT22;7272;53.668;9.578;2023-04-07T06:19:11;5.40;99.90
14378;DHT22;7272;53.668;9.578;2023-04-07T06:22:15;5.50;99.90
14378;DHT22;7272;53.668;9.578;2023-04-07T06:25:17;5.60;99.90
14378;DHT22;7272;53.668;9.578;2023-04-07T06:28:20;5.70;99.90
14378;DHT22;7272;53.668;9.578;2023-04-07T06:31:33;5.80;99.90
14378;DHT22;7272;53.668;9.578;2023-04-07T06:34:35;6.00;99.90
14378;DHT22;7272;53.668;9.578;2023-04-07T06:37:38;6.10;99.90
14378;DHT22;7272;53.668;9.578;2023-04-07T06:40:41;6.20;99.90
14378;DHT22;7272;53.668;9.578;2023-04-07T06:43:43;6.40;99.90
14378;DHT22;7272;53.668;9.578;2023-04-07T06:46:45;6.50;99.90
14378;DHT22;7272;53.668;9.578;2023-04-07T06:49:49;6.60;99.90
14378;DHT22;7272;53.668;9.578;2023-04-07T06:52:53;6.70;99.90
14378;DHT22;7272;53.668;9.578;2023-04-07T06:56:02;6.90;99.90
14378;DHT22;7272;53.668;9.578;2023-04-07T06:59:04;7.00;99.90
14378;DHT22;7272;53.668;9.578;2023-04-07T07:02:06;7.10;99.90
14378;DHT22;7272;53.668;9.578;2023-04-07T07:05:09;7.20;99.90
14378;DHT22;7272;53.668;9.578;2023-04-07T07:08:12;7.30;99.90
14378;DHT22;7272;53.668;9.578;2023-04-07T07:11:14;7.40;99.90
14378;DHT22;7272;53.668;9.578;2023-04-07T07:14:16;7.50;99.90
14378;DHT22;7272;53.668;9.578;2023-04-07T07:17:18;7.50;99.90
14378;DHT22;7272;53.668;9.578;2023-04-07T07:20:20;7.60;99.90
14378;DHT22;7272;53.668;9.578;2023-04-07T07:23:24;7.70;99.90
14378;DHT22;7272;53.668;9.578;2023-04-07T07:26:26;7.80;99.90
14378;DHT22;7272;53.668;9.578;2023-04-07T07:29:28;7.90;99.90
14378;DHT22;7272;53.668;9.578;2023-04-07T07:32:31;8.10;99.90
14378;DHT22;7272;53.668;9.578;2023-04-07T07:35:33;8.20;99.90
14378;DHT22;7272;53.668;9.578;2023-04-07T07:38:36;8.30;99.90
14378;DHT22;7272;53.668;9.578;2023-04-07T07:41:38;8.40;99.90
14378;DHT22;7272;53.668;9.578;2023-04-07T07:44:41;8.60;99.90
14378;DHT22;7272;53.668;9.578;2023-04-07T07:47:43;8.70;99.90
14378;DHT22;7272;53.668;9.578;2023-04-07T07:50:44;8.90;99.90
14378;DHT22;7272;53.668;9.578;2023-04-07T07:53:48;9.10;99.90
14378;DHT22;7272;53.668;9.578;2023-04-07T07:56:50;9.20;99.90
14378;DHT22;7272;53.668;9.578;2023-04-07T07:59:52;9.40;99.90
14378;DHT22;7272;53.668;9.578;2023-04-07T08:02:54;9.50;99.90
14378;DHT22;7272;53.668;9.578;2023-04-07T08:05:56;9.60;99.90
14378;DHT22;7272;53.668;9.578;2023-04-07T08:09:00;9.70;99.90
14378;DHT22;7272;53.668;9.578;2023-04-07T08:12:02;9.80;99.90
14378;DHT22;7272;53.668;9.578;2023-04-07T08:15:05;10.00;99.90
14378;DHT22;7272;53.668;9.578;2023-04-07T08:18:09;10.30;99.90
14378;DHT22;7272;53.668;9.578;2023-04-07T08:21:11;10.40;99.90
14378;DHT22;7272;53.668;9.578;2023-04-07T08:24:14;10.50;99.90
14378;DHT22;7272;53.668;9.578;2023-04-07T08:27:16;10.60;99.90
14378;DHT22;7272;53.668;9.578;2023-04-07T08:30:18;10.80;99.90
14378;DHT22;7272;53.668;9.578;2023-04-07T08:33:21;11.00;99.90
14378;DHT22;7272;53.668;9.578;2023-04-07T08:36:23;11.20;99.90
14378;DHT22;7272;53.668;9.578;2023-04-07T08:39:27;11.30;99.90
14378;DHT22;7272;53.668;9.578;2023-04-07T08:42:30;11.50;99.90
14378;DHT22;7272;53.668;9.578;2023-04-07T08:45:33;11.60;99.90
14378;DHT22;7272;53.668;9.578;2023-04-07T08:48:37;11.60;99.90
14378;DHT22;7272;53.668;9.578;2023-04-07T08:51:44;11.70;99.90
14378;DHT22;7272;53.668;9.578;2023-04-07T08:54:48;11.90;99.90
14378;DHT22;7272;53.668;9.578;2023-04-07T08:57:50;12.10;99.90
14378;DHT22;7272;53.668;9.578;2023-04-07T09:00:53;12.20;99.90
14378;DHT22;7272;53.668;9.578;2023-04-07T09:03:56;12.50;99.90
14378;DHT22;7272;53.668;9.578;2023-04-07T09:06:58;12.40;99.90
14378;DHT22;7272;53.668;9.578;2023-04-07T09:10:04;12.50;99.90
14378;DHT22;7272;53.668;9.578;2023-04-07T09:13:06;12.70;99.90
14378;DHT22;7272;53.668;9.578;2023-04-07T09:16:08;12.80;99.90
14378;DHT22;7272;53.668;9.578;2023-04-07T09:19:10;13.10;99.90
14378;DHT22;7272;53.668;9.578;2023-04-07T09:22:12;13.20;99.90
14378;DHT22;7272;53.668;9.578;2023-04-07T09:25:17;13.10;99.90
14378;DHT22;7272;53.668;9.578;2023-04-07T09:28:19;13.00;99.90
14378;DHT22;7272;53.668;9.578;2023-04-07T09:31:22;12.90;99.90
14378;DHT22;7272;53.668;9.578;2023-04-07T09:34:27;12.80;99.90
14378;DHT22;7272;53.668;9.578;2023-04-07T09:37:30;12.80;99.90
14378;DHT22;7272;53.668;9.578;2023-04-07T09:40:33;12.90;99.90
14378;DHT22;7272;53.668;9.578;2023-04-07T09:43:37;13.00;99.90
14378;DHT22;7272;53.668;9.578;2023-04-07T09:46:48;13.30;99.90
14378;DHT22;7272;53.668;9.578;2023-04-07T09:49:51;13.70;99.90
14378;DHT22;7272;53.668;9.578;2023-04-07T09:52:53;13.80;99.90
14378;DHT22;7272;53.668;9.578;2023-04-07T09:55:57;13.80;99.90
14378;DHT22;7272;53.668;9.578;2023-04-07T09:58:59;13.80;99.90
14378;DHT22;7272;53.668;9.578;2023-04-07T10:02:02;13.90;99.90
14378;DHT22;7272;53.668;9.578;2023-04-07T10:05:05;14.20;99.90
14378;DHT22;7272;53.668;9.578;2023-04-07T10:08:08;14.30;99.90
14378;DHT22;7272;53.668;9.578;2023-04-07T10:11:12;14.30;99.90
14378;DHT22;7272;53.668;9.578;2023-04-07T10:14:14;14.40;99.90
14378;DHT22;7272;53.668;9.578;2023-04-07T10:17:17;14.50;99.90
14378;DHT22;7272;53.668;9.578;2023-04-07T10:20:20;14.20;99.90
14378;DHT22;7272;53.668;9.578;2023-04-07T10:23:27;14.10;99.90
14378;DHT22;7272;53.668;9.578;2023-04-07T10:26:33;14.20;99.90
14378;DHT22;7272;53.668;9.578;2023-04-07T10:29:38;14.30;99.90
14378;DHT22;7272;53.668;9.578;2023-04-07T10:32:45;14.60;99.90
14378;DHT22;7272;53.668;9.578;2023-04-07T10:36:04;14.80;99.90
14378;DHT22;7272;53.668;9.578;2023-04-07T10:39:20;14.50;99.90
14378;DHT22;7272;53.668;9.578;2023-04-07T10:42:47;14.90;99.90
14378;DHT22;7272;53.668;9.578;2023-04-07T10:45:53;15.00;99.90
14378;DHT22;7272;53.668;9.578;2023-04-07T10:49:07;14.90;99.90
14378;DHT22;7272;53.668;9.578;2023-04-07T10:52:22;14.80;99.90
14378;DHT22;7272;53.668;9.578;2023-04-07T10:55:30;14.80;99.90
14378;DHT22;7272;53.668;9.578;2023-04-07T10:58:33;15.00;99.90
14378;DHT22;7272;53.668;9.578;2023-04-07T11:01:37;15.20;99.90
14378;DHT22;7272;53.668;9.578;2023-04-07T11:04:40;15.40;99.90
14378;DHT22;7272;53.668;9.578;2023-04-07T11:07:47;15.50;99.90
14378;DHT22;7272;53.668;9.578;2023-04-07T11:10:50;15.30;99.90
14378;DHT22;7272;53.668;9.578;2023-04-07T11:13:54;15.10;99.90
14378;DHT22;7272;53.668;9.578;2023-04-07T11:16:56;14.90;99.90
14378;DHT22;7272;53.668;9.578;2023-04-07T11:19:58;14.70;99.90
14378;DHT22;7272;53.668;9.578;2023-04-07T11:23:00;14.30;99.90
14378;DHT22;7272;53.668;9.578;2023-04-07T11:26:02;14.30;99.90
14378;DHT22;7272;53.668;9.578;2023-04-07T11:29:06;14.60;99.90
14378;DHT22;7272;53.668;9.578;2023-04-07T11:32:08;14.90;99.90
14378;DHT22;7272;53.668;9.578;2023-04-07T11:35:12;15.10;99.90
14378;DHT22;7272;53.668;9.578;2023-04-07T11:38:16;15.20;99.90
14378;DHT22;7272;53.668;9.578;2023-04-07T11:41:18;15.40;99.90
14378;DHT22;7272;53.668;9.578;2023-04-07T11:44:22;15.50;99.90
14378;DHT22;7272;53.668;9.578;2023-04-07T11:47:33;15.40;99.90
14378;DHT22;7272;53.668;9.578;2023-04-07T11:50:40;15.60;99.90
14378;DHT22;7272;53.668;9.578;2023-04-07T11:53:42;15.80;99.90
14378;DHT22;7272;53.668;9.578;2023-04-07T11:56:46;15.60;99.90
14378;DHT22;7272;53.668;9.578;2023-04-07T11:59:49;15.50;99.90
14378;DHT22;7272;53.668;9.578;2023-04-07T12:02:51;15.50;99.90
14378;DHT22;7272;53.668;9.578;2023-04-07T12:05:53;15.40;99.90
14378;DHT22;7272;53.668;9.578;2023-04-07T12:08:55;15.20;99.90
14378;DHT22;7272;53.668;9.578;2023-04-07T12:11:57;15.20;99.90
14378;DHT22;7272;53.668;9.578;2023-04-07T12:15:01;15.50;99.90
14378;DHT22;7272;53.668;9.578;2023-04-07T12:18:03;15.80;99.90
14378;DHT22;7272;53.668;9.578;2023-04-07T12:21:05;15.90;99.90
14378;DHT22;7272;53.668;9.578;2023-04-07T12:24:07;15.90;99.90
14378;DHT22;7272;53.668;9.578;2023-04-07T12:27:09;15.60;99.90
14378;DHT22;7272;53.668;9.578;2023-04-07T12:30:12;15.30;99.90
14378;DHT22;7272;53.668;9.578;2023-04-07T12:33:14;15.40;99.90
14378;DHT22;7272;53.668;9.578;2023-04-07T12:36:16;15.60;99.90
14378;DHT22;7272;53.668;9.578;2023-04-07T12:39:18;15.60;99.90
14378;DHT22;7272;53.668;9.578;2023-04-07T12:42:20;15.60;99.90
14378;DHT22;7272;53.668;9.578;2023-04-07T12:45:23;15.50;99.90
14378;DHT22;7272;53.668;9.578;2023-04-07T12:48:25;15.30;99.90
14378;DHT22;7272;53.668;9.578;2023-04-07T12:51:27;15.20;99.90
14378;DHT22;7272;53.668;9.578;2023-04-07T12:54:29;14.90;99.90
14378;DHT22;7272;53.668;9.578;2023-04-07T12:57:31;15.00;99.90
14378;DHT22;7272;53.668;9.578;2023-04-07T13:00:34;15.20;99.90
14378;DHT22;7272;53.668;9.578;2023-04-07T13:03:36;15.30;99.90
14378;DHT22;7272;53.668;9.578;2023-04-07T13:06:38;15.50;99.90
14378;DHT22;7272;53.668;9.578;2023-04-07T13:09:41;15.40;99.90
14378;DHT22;7272;53.668;9.578;2023-04-07T13:12:43;15.40;99.90
14378;DHT22;7272;53.668;9.578;2023-04-07T13:15:47;15.60;99.90
14378;DHT22;7272;53.668;9.578;2023-04-07T13:18:49;15.60;99.90
14378;DHT22;7272;53.668;9.578;2023-04-07T13:21:51;15.50;99.90
14378;DHT22;7272;53.668;9.578;2023-04-07T13:24:52;15.30;99.90
14378;DHT22;7272;53.668;9.578;2023-04-07T13:27:55;15.40;99.90
14378;DHT22;7272;53.668;9.578;2023-04-07T13:30:58;14.90;99.90
14378;DHT22;7272;53.668;9.578;2023-04-07T13:34:00;15.00;99.90
14378;DHT22;7272;53.668;9.578;2023-04-07T13:37:05;15.10;99.90
14378;DHT22;7272;53.668;9.578;2023-04-07T13:40:08;15.00;99.90
14378;DHT22;7272;53.668;9.578;2023-04-07T13:43:10;14.90;99.90
14378;DHT22;7272;53.668;9.578;2023-04-07T13:46:13;15.10;99.90
14378;DHT22;7272;53.668;9.578;2023-04-07T13:49:17;15.20;99.90
14378;DHT22;7272;53.668;9.578;2023-04-07T13:52:19;15.20;99.90
14378;DHT22;7272;53.668;9.578;2023-04-07T13:55:21;15.20;99.90
14378;DHT22;7272;53.668;9.578;2023-04-07T13:58:23;15.00;99.90
14378;DHT22;7272;53.668;9.578;2023-04-07T14:01:26;15.10;99.90
14378;DHT22;7272;53.668;9.578;2023-04-07T14:04:29;15.30;99.90
14378;DHT22;7272;53.668;9.578;2023-04-07T14:07:30;15.20;99.90
14378;DHT22;7272;53.668;9.578;2023-04-07T14:10:32;15.20;99.90
14378;DHT22;7272;53.668;9.578;2023-04-07T14:13:35;15.20;99.90
14378;DHT22;7272;53.668;9.578;2023-04-07T14:16:39;14.90;99.90
14378;DHT22;7272;53.668;9.578;2023-04-07T14:19:41;15.00;99.90
14378;DHT22;7272;53.668;9.578;2023-04-07T14:22:42;14.80;99.90
14378;DHT22;7272;53.668;9.578;2023-04-07T14:25:45;14.80;99.90
14378;DHT22;7272;53.668;9.578;2023-04-07T14:28:47;14.70;99.90
14378;DHT22;7272;53.668;9.578;2023-04-07T14:31:50;14.50;99.90
14378;DHT22;7272;53.668;9.578;2023-04-07T14:34:52;14.40;99.90
14378;DHT22;7272;53.668;9.578;2023-04-07T14:37:54;14.50;99.90
14378;DHT22;7272;53.668;9.578;2023-04-07T14:40:56;14.50;99.90
14378;DHT22;7272;53.668;9.578;2023-04-07T14:43:58;14.20;99.90
14378;DHT22;7272;53.668;9.578;2023-04-07T14:47:01;13.80;99.90
14378;DHT22;7272;53.668;9.578;2023-04-07T14:50:04;13.60;99.90
14378;DHT22;7272;53.668;9.578;2023-04-07T14:53:06;13.60;99.90
14378;DHT22;7272;53.668;9.578;2023-04-07T14:56:08;13.70;99.90
14378;DHT22;7272;53.668;9.578;2023-04-07T14:59:10;13.50;99.90
14378;DHT22;7272;53.668;9.578;2023-04-07T15:02:13;13.50;99.90
14378;DHT22;7272;53.668;9.578;2023-04-07T15:05:16;13.50;99.90
14378;DHT22;7272;53.668;9.578;2023-04-07T15:08:17;13.30;99.90
14378;DHT22;7272;53.668;9.578;2023-04-07T15:11:19;13.10;99.90
14378;DHT22;7272;53.668;9.578;2023-04-07T15:14:22;13.00;99.90
14378;DHT22;7272;53.668;9.578;2023-04-07T15:17:25;12.80;99.90
14378;DHT22;7272;53.668;9.578;2023-04-07T15:20:27;12.80;99.90
14378;DHT22;7272;53.668;9.578;2023-04-07T15:23:29;12.80;99.90
14378;DHT22;7272;53.668;9.578;2023-04-07T15:26:31;12.90;99.90
14378;DHT22;7272;53.668;9.578;2023-04-07T15:29:33;12.90;99.90
14378;DHT22;7272;53.668;9.578;2023-04-07T15:32:38;12.80;99.90
14378;DHT22;7272;53.668;9.578;2023-04-07T15:35:41;12.70;99.90
14378;DHT22;7272;53.668;9.578;2023-04-07T15:38:43;12.80;99.90
14378;DHT22;7272;53.668;9.578;2023-04-07T15:41:45;12.80;99.90
14378;DHT22;7272;53.668;9.578;2023-04-07T15:44:47;12.80;99.90
14378;DHT22;7272;53.668;9.578;2023-04-07T15:47:51;12.80;99.90
14378;DHT22;7272;53.668;9.578;2023-04-07T15:50:53;12.70;99.90
14378;DHT22;7272;53.668;9.578;2023-04-07T15:53:55;12.60;99.90
14378;DHT22;7272;53.668;9.578;2023-04-07T15:56:57;12.30;99.90
14378;DHT22;7272;53.668;9.578;2023-04-07T15:59:59;12.00;99.90
14378;DHT22;7272;53.668;9.578;2023-04-07T16:03:03;11.70;99.90
14378;DHT22;7272;53.668;9.578;2023-04-07T16:06:07;11.50;99.90
14378;DHT22;7272;53.668;9.578;2023-04-07T16:09:09;11.50;99.90
14378;DHT22;7272;53.668;9.578;2023-04-07T16:12:12;11.40;99.90
14378;DHT22;7272;53.668;9.578;2023-04-07T16:15:14;11.30;99.90
14378;DHT22;7272;53.668;9.578;2023-04-07T16:18:17;11.20;99.90
14378;DHT22;7272;53.668;9.578;2023-04-07T16:21:20;11.30;99.90
14378;DHT22;7272;53.668;9.578;2023-04-07T16:24:21;11.30;99.90
14378;DHT22;7272;53.668;9.578;2023-04-07T16:27:23;11.40;99.90
14378;DHT22;7272;53.668;9.578;2023-04-07T16:30:25;11.30;99.90
14378;DHT22;7272;53.668;9.578;2023-04-07T16:33:29;11.10;99.90
14378;DHT22;7272;53.668;9.578;2023-04-07T16:36:31;11.10;99.90
14378;DHT22;7272;53.668;9.578;2023-04-07T16:39:33;10.80;99.90
14378;DHT22;7272;53.668;9.578;2023-04-07T16:42:35;10.70;99.90
14378;DHT22;7272;53.668;9.578;2023-04-07T16:45:37;10.50;99.90
14378;DHT22;7272;53.668;9.578;2023-04-07T16:48:40;10.40;99.90
14378;DHT22;7272;53.668;9.578;2023-04-07T16:51:42;10.20;99.90
14378;DHT22;7272;53.668;9.578;2023-04-07T16:54:44;10.20;99.90
14378;DHT22;7272;53.668;9.578;2023-04-07T16:57:47;10.20;99.90
14378;DHT22;7272;53.668;9.578;2023-04-07T17:00:50;10.00;99.90
14378;DHT22;7272;53.668;9.578;2023-04-07T17:03:53;9.80;99.90
14378;DHT22;7272;53.668;9.578;2023-04-07T17:06:55;9.70;99.90
14378;DHT22;7272;53.668;9.578;2023-04-07T17:10:00;9.70;99.90
14378;DHT22;7272;53.668;9.578;2023-04-07T17:13:02;9.60;99.90
14378;DHT22;7272;53.668;9.578;2023-04-07T17:16:04;9.60;99.90
14378;DHT22;7272;53.668;9.578;2023-04-07T17:19:08;9.60;99.90
14378;DHT22;7272;53.668;9.578;2023-04-07T17:22:10;9.60;99.90
14378;DHT22;7272;53.668;9.578;2023-04-07T17:25:12;9.50;99.90
14378;DHT22;7272;53.668;9.578;2023-04-07T17:28:14;9.20;99.90
14378;DHT22;7272;53.668;9.578;2023-04-07T17:31:15;9.10;99.90
14378;DHT22;7272;53.668;9.578;2023-04-07T17:34:19;9.00;99.90
14378;DHT22;7272;53.668;9.578;2023-04-07T17:37:21;9.00;99.90
14378;DHT22;7272;53.668;9.578;2023-04-07T17:40:23;8.80;99.90
14378;DHT22;7272;53.668;9.578;2023-04-07T17:43:25;8.80;99.90
14378;DHT22;7272;53.668;9.578;2023-04-07T17:46:31;8.90;99.90
14378;DHT22;7272;53.668;9.578;2023-04-07T17:49:34;8.80;99.90
14378;DHT22;7272;53.668;9.578;2023-04-07T17:52:36;8.70;99.90
14378;DHT22;7272;53.668;9.578;2023-04-07T17:55:38;8.60;99.90
14378;DHT22;7272;53.668;9.578;2023-04-07T17:58:40;8.60;99.90
14378;DHT22;7272;53.668;9.578;2023-04-07T18:01:42;8.60;99.90
14378;DHT22;7272;53.668;9.578;2023-04-07T18:04:48;8.50;99.90
14378;DHT22;7272;53.668;9.578;2023-04-07T18:07:50;8.40;99.90
14378;DHT22;7272;53.668;9.578;2023-04-07T18:10:52;8.20;99.90
14378;DHT22;7272;53.668;9.578;2023-04-07T18:13:54;8.10;99.90
14378;DHT22;7272;53.668;9.578;2023-04-07T18:16:56;8.10;99.90
14378;DHT22;7272;53.668;9.578;2023-04-07T18:19:59;8.10;99.90
14378;DHT22;7272;53.668;9.578;2023-04-07T18:23:01;8.10;99.90
14378;DHT22;7272;53.668;9.578;2023-04-07T18:26:03;8.00;99.90
14378;DHT22;7272;53.668;9.578;2023-04-07T18:29:06;8.00;99.90
14378;DHT22;7272;53.668;9.578;2023-04-07T18:32:08;7.70;99.90
14378;DHT22;7272;53.668;9.578;2023-04-07T18:35:11;7.70;99.90
14378;DHT22;7272;53.668;9.578;2023-04-07T18:38:13;7.70;99.90
14378;DHT22;7272;53.668;9.578;2023-04-07T18:41:15;7.70;99.90
14378;DHT22;7272;53.668;9.578;2023-04-07T18:44:17;7.70;99.90
14378;DHT22;7272;53.668;9.578;2023-04-07T18:47:19;7.70;99.90
14378;DHT22;7272;53.668;9.578;2023-04-07T18:50:22;7.80;99.90
14378;DHT22;7272;53.668;9.578;2023-04-07T18:53:24;7.90;99.90
14378;DHT22;7272;53.668;9.578;2023-04-07T18:56:26;7.80;99.90
14378;DHT22;7272;53.668;9.578;2023-04-07T18:59:28;7.80;99.90
14378;DHT22;7272;53.668;9.578;2023-04-07T19:02:30;7.70;99.90
14378;DHT22;7272;53.668;9.578;2023-04-07T19:05:36;7.60;99.90
14378;DHT22;7272;53.668;9.578;2023-04-07T19:08:38;7.60;99.90
14378;DHT22;7272;53.668;9.578;2023-04-07T19:11:39;7.60;99.90
14378;DHT22;7272;53.668;9.578;2023-04-07T19:14:42;7.50;99.90
14378;DHT22;7272;53.668;9.578;2023-04-07T19:17:44;7.40;99.90
14378;DHT22;7272;53.668;9.578;2023-04-07T19:20:47;7.40;99.90
14378;DHT22;7272;53.668;9.578;2023-04-07T19:23:49;7.40;99.90
14378;DHT22;7272;53.668;9.578;2023-04-07T19:26:53;7.50;99.90
14378;DHT22;7272;53.668;9.578;2023-04-07T19:29:56;7.50;99.90
14378;DHT22;7272;53.668;9.578;2023-04-07T19:32:58;7.40;99.90
14378;DHT22;7272;53.668;9.578;2023-04-07T19:36:01;7.40;99.90
14378;DHT22;7272;53.668;9.578;2023-04-07T19:39:03;7.30;99.90
14378;DHT22;7272;53.668;9.578;2023-04-07T19:42:05;7.30;99.90
14378;DHT22;7272;53.668;9.578;2023-04-07T19:45:08;7.30;99.90
14378;DHT22;7272;53.668;9.578;2023-04-07T19:48:10;7.30;99.90